Time;durP1;ratioP1;P1;durP2;ratioP2;P2;SDS_P1;SDS_P2;PMS_P1;PMS_P2;Temp;Humidity;BMP_temperature;BMP_pressure;BME280_temperature;BME280_humidity;BME280_pressure;Samples;Min_cycle;Max_cycle;Signal;HPM_P1;HPM_P2
2022/04/28 00:01:04;;;;;;;13.35;2.67;;;;;;;;;;5259382;28;20464;-72
2022/04/28 00:03:35;;;;;;;11.32;3.35;;;;;;;;;;5259848;28;20100;-72
2022/04/28 00:06:06;;;;;;;11.57;3.08;;;;;;;;;;5260370;28;20021;-72
2022/04/28 00:08:37;;;;;;;13.88;3.36;;;;;;;;;;5259111;28;20021;-72
2022/04/28 00:11:10;;;;;;;10.98;3.25;;;;;;;;;;5260471;28;20028;-72
2022/04/28 00:13:41;;;;;;;11.63;3.72;;;;;;;;;;5259705;28;20025;-72
2022/04/28 00:16:12;;;;;;;11.42;3.02;;;;;;;;;;5259348;28;20080;-72
2022/04/28 00:18:43;;;;;;;8.88;2.83;;;;;;;;;;5260071;28;20345;-71
2022/04/28 00:21:14;;;;;;;10.32;3.58;;;;;;;;;;5260565;28;20070;-71
2022/04/28 00:23:46;;;;;;;14.00;3.78;;;;;;;;;;5259082;28;20047;-71
2022/04/28 00:26:17;;;;;;;12.23;3.92;;;;;;;;;;5260311;28;20029;-72
2022/04/28 00:28:48;;;;;;;10.63;3.05;;;;;;;;;;5259122;28;20497;-72
2022/04/28 00:31:19;;;;;;;12.58;4.46;;;;;;;;;;5260153;28;20279;-72
2022/04/28 00:33:50;;;;;;;10.93;3.58;;;;;;;;;;5260163;28;20021;-72
2022/04/28 00:36:21;;;;;;;11.88;4.07;;;;;;;;;;5262141;28;20398;-72
2022/04/28 00:38:53;;;;;;;11.27;3.30;;;;;;;;;;5264042;28;20731;-72
2022/04/28 00:41:24;;;;;;;12.27;4.47;;;;;;;;;;5263309;28;20024;-72
2022/04/28 00:43:55;;;;;;;11.80;3.20;;;;;;;;;;5263124;28;20263;-72
2022/04/28 00:46:26;;;;;;;13.10;3.80;;;;;;;;;;5263309;28;20017;-73
2022/04/28 00:51:47;;;;;;;11.30;4.20;;;;;;;;;;5262650;28;20021;-71
2022/04/28 00:54:18;;;;;;;9.35;3.20;;;;;;;;;;5263511;28;20016;-71
2022/04/28 00:56:50;;;;;;;13.96;4.16;;;;;;;;;;5262437;28;20082;-70
2022/04/28 00:59:21;;;;;;;8.23;3.30;;;;;;;;;;5263069;28;20391;-70
2022/04/28 01:01:53;;;;;;;14.75;3.97;;;;;;;;;;5263452;28;20482;-70
2022/04/28 01:04:24;;;;;;;11.15;3.65;;;;;;;;;;5262237;28;20531;-71
2022/04/28 01:06:55;;;;;;;10.82;3.85;;;;;;;;;;5263640;28;20025;-71
2022/04/28 01:09:27;;;;;;;10.25;4.20;;;;;;;;;;5262831;28;20267;-71
2022/04/28 01:11:58;;;;;;;9.00;3.08;;;;;;;;;;5262353;28;20021;-70
2022/04/28 01:14:29;;;;;;;13.46;3.66;;;;;;;;;;5262416;28;20467;-70
2022/04/28 01:17:00;;;;;;;7.62;3.84;;;;;;;;;;5262931;28;20472;-70
2022/04/28 01:19:32;;;;;;;10.68;3.90;;;;;;;;;;5261549;28;20405;-71
2022/04/28 01:22:03;;;;;;;11.88;3.58;;;;;;;;;;5262734;28;20044;-71
2022/04/28 01:24:36;;;;;;;10.00;3.83;;;;;;;;;;5262042;28;20021;-71
2022/04/28 01:27:07;;;;;;;16.15;4.38;;;;;;;;;;5261837;28;20051;-71
2022/04/28 01:29:39;;;;;;;9.63;4.47;;;;;;;;;;5261987;28;20380;-72
2022/04/28 01:32:10;;;;;;;11.35;3.75;;;;;;;;;;5262047;28;20438;-71
2022/04/28 01:34:41;;;;;;;7.66;3.26;;;;;;;;;;5262267;28;20406;-71
2022/04/28 01:37:12;;;;;;;9.23;3.97;;;;;;;;;;5262733;28;20056;-71
2022/04/28 01:39:44;;;;;;;10.48;3.70;;;;;;;;;;5261563;28;20024;-70
2022/04/28 01:42:15;;;;;;;9.88;3.97;;;;;;;;;;5262841;28;20035;-70
2022/04/28 01:44:46;;;;;;;13.98;4.58;;;;;;;;;;5262046;28;20025;-71
2022/04/28 01:47:17;;;;;;;12.40;4.45;;;;;;;;;;5261287;28;20017;-70
2022/04/28 01:49:48;;;;;;;13.98;5.05;;;;;;;;;;5262132;28;20274;-70
2022/04/28 01:55:09;;;;;;;15.07;4.65;;;;;;;;;;5261973;28;20021;-71
2022/04/28 01:57:41;;;;;;;11.48;3.78;;;;;;;;;;5261858;28;20037;-71
2022/04/28 02:00:12;;;;;;;17.55;4.57;;;;;;;;;;5261724;28;20099;-71
2022/04/28 02:02:44;;;;;;;10.98;4.07;;;;;;;;;;5261658;28;20032;-71
2022/04/28 02:05:15;;;;;;;16.38;4.57;;;;;;;;;;5262459;28;20088;-72
2022/04/28 02:07:46;;;;;;;13.25;4.55;;;;;;;;;;5260849;28;20092;-71
2022/04/28 02:10:17;;;;;;;16.48;5.22;;;;;;;;;;5262045;28;20050;-72
2022/04/28 02:12:48;;;;;;;13.98;4.82;;;;;;;;;;5261548;28;20025;-71
2022/04/28 02:15:20;;;;;;;13.80;4.78;;;;;;;;;;5260829;28;20559;-71
2022/04/28 02:17:51;;;;;;;9.88;4.25;;;;;;;;;;5261846;28;20017;-71
2022/04/28 02:20:22;;;;;;;16.27;5.70;;;;;;;;;;5261258;28;20025;-72
2022/04/28 02:22:53;;;;;;;14.93;4.68;;;;;;;;;;5261191;28;20595;-72
2022/04/28 02:25:24;;;;;;;12.00;4.15;;;;;;;;;;5261329;28;20112;-71
2022/04/28 02:27:55;;;;;;;12.68;4.35;;;;;;;;;;5261829;28;20707;-71
2022/04/28 02:30:27;;;;;;;13.58;4.46;;;;;;;;;;5260563;28;20510;-71
2022/04/28 02:33:10;;;;;;;8.66;4.58;;;;;;;;;;5261568;28;20025;-72
2022/04/28 02:35:41;;;;;;;11.18;4.53;;;;;;;;;;5260416;28;20035;-71
2022/04/28 02:38:12;;;;;;;12.88;4.90;;;;;;;;;;5261715;28;20020;-71
2022/04/28 02:40:43;;;;;;;10.55;5.20;;;;;;;;;;5260756;28;20025;-71
2022/04/28 02:43:14;;;;;;;9.80;4.98;;;;;;;;;;5260677;28;20020;-71
2022/04/28 02:45:46;;;;;;;10.20;5.43;;;;;;;;;;5260958;28;20100;-71
2022/04/28 02:48:17;;;;;;;14.20;5.03;;;;;;;;;;5261751;28;20387;-71
2022/04/28 02:50:48;;;;;;;11.38;4.72;;;;;;;;;;5260169;28;20025;-72
2022/04/28 02:53:20;;;;;;;10.93;4.90;;;;;;;;;;5260981;28;20029;-72
2022/04/28 02:55:51;;;;;;;14.00;5.00;;;;;;;;;;5260692;28;20382;-71
2022/04/28 02:58:22;;;;;;;16.67;6.40;;;;;;;;;;5259023;28;20537;-72
2022/04/28 03:00:53;;;;;;;10.32;5.26;;;;;;;;;;5261313;28;20025;-71
2022/04/28 03:03:24;;;;;;;12.50;5.15;;;;;;;;;;5259859;28;20041;-72
2022/04/28 03:11:35;;;;;;;14.25;4.47;;;;;;;;;;5259716;28;20420;-71
2022/04/28 03:14:06;;;;;;;14.94;5.16;;;;;;;;;;5261092;28;20017;-71
2022/04/28 03:16:37;;;;;;;12.52;5.43;;;;;;;;;;5260215;28;20149;-72
2022/04/28 03:19:08;;;;;;;11.38;5.30;;;;;;;;;;5260163;28;20048;-71
2022/04/28 03:21:40;;;;;;;14.98;5.75;;;;;;;;;;5260118;28;20020;-71
2022/04/28 03:24:11;;;;;;;13.63;4.97;;;;;;;;;;5260704;28;20017;-70
2022/04/28 03:26:42;;;;;;;14.82;6.25;;;;;;;;;;5259252;28;20036;-71
2022/04/28 03:29:13;;;;;;;13.45;5.32;;;;;;;;;;5260774;28;20513;-71
2022/04/28 03:31:44;;;;;;;12.80;6.08;;;;;;;;;;5259526;28;20033;-71
2022/04/28 03:34:16;;;;;;;14.60;5.86;;;;;;;;;;5260927;28;20443;-72
2022/04/28 03:36:53;;;;;;;13.27;6.20;;;;;;;;;;5260098;28;20032;-72
2022/04/28 03:39:24;;;;;;;12.25;5.90;;;;;;;;;;5259534;28;20086;-72
2022/04/28 03:41:55;;;;;;;12.43;4.95;;;;;;;;;;5260574;28;20025;-72
2022/04/28 03:44:26;;;;;;;16.02;6.15;;;;;;;;;;5260315;28;20021;-72
2022/04/28 03:46:58;;;;;;;15.20;6.28;;;;;;;;;;5259912;28;20068;-71
2022/04/28 03:49:29;;;;;;;16.70;5.92;;;;;;;;;;5260043;28;20443;-72
2022/04/28 03:52:00;;;;;;;14.46;5.88;;;;;;;;;;5260557;28;20028;-71
2022/04/28 03:54:31;;;;;;;13.43;6.05;;;;;;;;;;5259226;28;20414;-71
2022/04/28 03:57:02;;;;;;;15.48;6.52;;;;;;;;;;5260570;28;20044;-71
2022/04/28 03:59:34;;;;;;;12.95;6.60;;;;;;;;;;5259280;28;20017;-72
2022/04/28 04:02:05;;;;;;;12.55;6.13;;;;;;;;;;5260460;28;20086;-71
2022/04/28 04:04:36;;;;;;;12.25;6.13;;;;;;;;;;5259909;28;20476;-72
2022/04/28 04:07:07;;;;;;;15.16;6.70;;;;;;;;;;5259895;28;20092;-71
2022/04/28 04:09:38;;;;;;;12.63;6.65;;;;;;;;;;5260947;28;20017;-71
2022/04/28 04:12:10;;;;;;;18.60;7.25;;;;;;;;;;5264270;28;20049;-71
2022/04/28 04:14:41;;;;;;;16.83;7.72;;;;;;;;;;5262753;28;20480;-71
2022/04/28 04:17:12;;;;;;;16.12;6.94;;;;;;;;;;5264394;28;20068;-71
2022/04/28 04:19:43;;;;;;;16.08;7.70;;;;;;;;;;5263890;28;20021;-71
2022/04/28 04:22:14;;;;;;;19.45;7.32;;;;;;;;;;5263394;28;20029;-71
2022/04/28 04:24:46;;;;;;;18.30;7.45;;;;;;;;;;5263618;28;20453;-71
2022/04/28 04:27:17;;;;;;;16.70;7.80;;;;;;;;;;5264281;28;20056;-72
2022/04/28 04:29:48;;;;;;;14.50;7.90;;;;;;;;;;5263104;28;20474;-71
2022/04/28 04:32:25;;;;;;;19.22;7.64;;;;;;;;;;5263976;28;20025;-71
2022/04/28 04:34:56;;;;;;;15.55;8.48;;;;;;;;;;5263333;28;20071;-72
2022/04/28 04:37:28;;;;;;;16.40;7.86;;;;;;;;;;5263389;28;20060;-72
2022/04/28 04:39:59;;;;;;;16.05;7.20;;;;;;;;;;5263914;28;20013;-71
2022/04/28 04:42:31;;;;;;;13.88;7.30;;;;;;;;;;5262650;28;20027;-70
2022/04/28 04:45:03;;;;;;;19.15;8.45;;;;;;;;;;5263860;28;20088;-72
2022/04/28 04:47:34;;;;;;;16.35;7.88;;;;;;;;;;5263116;28;20017;-71
2022/04/28 04:50:07;;;;;;;15.15;7.80;;;;;;;;;;5262812;28;20487;-71
2022/04/28 04:52:38;;;;;;;15.48;7.43;;;;;;;;;;5262839;28;20402;-71
2022/04/28 04:55:09;;;;;;;15.38;6.92;;;;;;;;;;5263590;28;20024;-71
2022/04/28 04:57:40;;;;;;;18.08;8.00;;;;;;;;;;5262024;28;20037;-70
2022/04/28 05:00:11;;;;;;;17.67;8.30;;;;;;;;;;5263393;28;20021;-71
2022/04/28 05:02:43;;;;;;;20.92;7.95;;;;;;;;;;5262390;28;20444;-72
2022/04/28 05:05:14;;;;;;;18.48;8.22;;;;;;;;;;5263216;28;20025;-72
2022/04/28 05:07:45;;;;;;;13.88;7.65;;;;;;;;;;5262828;28;20015;-71
2022/04/28 05:10:17;;;;;;;14.96;8.12;;;;;;;;;;5262593;28;20020;-72
2022/04/28 05:12:48;;;;;;;17.90;8.13;;;;;;;;;;5262735;28;20021;-72
2022/04/28 05:15:19;;;;;;;19.35;7.35;;;;;;;;;;5262723;28;20064;-71
2022/04/28 05:17:50;;;;;;;15.95;7.65;;;;;;;;;;5262202;28;20346;-71
2022/04/28 05:20:21;;;;;;;20.02;8.63;;;;;;;;;;5262701;28;20021;-73
2022/04/28 05:22:52;;;;;;;27.70;10.46;;;;;;;;;;5261913;28;20052;-71
2022/04/28 05:25:23;;;;;;;23.83;9.00;;;;;;;;;;5261570;28;20017;-71
2022/04/28 05:27:55;;;;;;;18.54;9.24;;;;;;;;;;5262907;28;20271;-71
2022/04/28 05:30:26;;;;;;;15.72;8.88;;;;;;;;;;5262618;28;20017;-71
2022/04/28 05:32:57;;;;;;;19.40;9.75;;;;;;;;;;5262303;28;20013;-72
2022/04/28 05:35:28;;;;;;;18.10;8.18;;;;;;;;;;5262393;28;20100;-70
2022/04/28 05:38:00;;;;;;;18.77;8.52;;;;;;;;;;5261852;28;20029;-71
2022/04/28 05:40:31;;;;;;;24.63;9.23;;;;;;;;;;5261995;28;20106;-71
2022/04/28 05:45:52;;;;;;;23.95;9.95;;;;;;;;;;5262090;28;20251;-72
2022/04/28 05:48:23;;;;;;;17.86;8.90;;;;;;;;;;5262001;28;20025;-72
2022/04/28 05:50:54;;;;;;;17.83;9.30;;;;;;;;;;5262474;28;20041;-71
2022/04/28 05:53:26;;;;;;;18.42;9.05;;;;;;;;;;5261196;28;20126;-72
2022/04/28 05:55:57;;;;;;;23.70;10.06;;;;;;;;;;5262516;28;20215;-71
2022/04/28 05:58:28;;;;;;;16.50;9.18;;;;;;;;;;5261752;28;20020;-71
2022/04/28 06:01:00;;;;;;;20.58;9.88;;;;;;;;;;5261398;28;20017;-71
2022/04/28 06:03:31;;;;;;;19.83;9.23;;;;;;;;;;5261501;28;20027;-71
2022/04/28 06:06:02;;;;;;;18.08;10.50;;;;;;;;;;5261594;28;20025;-71
2022/04/28 06:08:33;;;;;;;21.17;9.85;;;;;;;;;;5261641;28;20037;-72
2022/04/28 06:11:04;;;;;;;19.13;10.15;;;;;;;;;;5262105;28;20035;-72
2022/04/28 06:13:37;;;;;;;23.83;9.57;;;;;;;;;;5260560;28;20082;-71
2022/04/28 06:16:08;;;;;;;18.25;9.32;;;;;;;;;;5261273;28;20060;-71
2022/04/28 06:18:39;;;;;;;18.52;9.27;;;;;;;;;;5261360;28;20033;-71
2022/04/28 06:21:11;;;;;;;29.02;9.85;;;;;;;;;;5260785;28;20376;-73
2022/04/28 06:23:42;;;;;;;20.25;10.38;;;;;;;;;;5261281;28;20315;-73
2022/04/28 06:26:13;;;;;;;20.95;9.68;;;;;;;;;;5261660;28;20021;-72
2022/04/28 06:28:44;;;;;;;17.65;9.93;;;;;;;;;;5260474;28;20040;-72
2022/04/28 06:31:16;;;;;;;21.63;9.48;;;;;;;;;;5261816;28;20399;-72
2022/04/28 06:33:48;;;;;;;22.50;9.82;;;;;;;;;;5260921;28;20275;-72
2022/04/28 06:36:19;;;;;;;17.58;9.65;;;;;;;;;;5260423;28;20033;-73
2022/04/28 06:38:50;;;;;;;15.90;9.52;;;;;;;;;;5261196;28;20012;-72
2022/04/28 06:41:21;;;;;;;15.58;10.12;;;;;;;;;;5260162;28;20021;-72
2022/04/28 06:43:52;;;;;;;15.55;8.93;;;;;;;;;;5261618;28;20483;-72
2022/04/28 06:46:23;;;;;;;20.85;8.98;;;;;;;;;;5260451;28;20021;-72
2022/04/28 06:48:55;;;;;;;16.92;8.60;;;;;;;;;;5260071;28;20021;-69
2022/04/28 06:51:26;;;;;;;18.92;8.04;;;;;;;;;;5260262;28;20464;-72
2022/04/28 06:54:00;;;;;;;21.20;8.43;;;;;;;;;;5261296;28;20468;-72
2022/04/28 06:56:31;;;;;;;20.23;7.50;;;;;;;;;;5259792;28;20033;-71
2022/04/28 06:59:02;;;;;;;15.27;7.63;;;;;;;;;;5260911;28;20020;-72
2022/04/28 07:01:33;;;;;;;12.50;6.82;;;;;;;;;;5260472;28;20032;-72
2022/04/28 07:04:05;;;;;;;18.77;7.85;;;;;;;;;;5260160;28;20675;-73
2022/04/28 07:06:36;;;;;;;21.23;7.65;;;;;;;;;;5260580;28;20283;-73
2022/04/28 07:09:07;;;;;;;22.42;8.13;;;;;;;;;;5261108;28;20047;-71
2022/04/28 07:11:38;;;;;;;16.35;8.60;;;;;;;;;;5259719;28;20048;-72
2022/04/28 07:14:09;;;;;;;18.00;8.75;;;;;;;;;;5260840;28;20017;-72
2022/04/28 07:16:40;;;;;;;16.17;7.97;;;;;;;;;;5259251;28;20477;-72
2022/04/28 07:19:12;;;;;;;14.73;7.57;;;;;;;;;;5260631;28;20329;-72
2022/04/28 07:21:43;;;;;;;13.60;8.05;;;;;;;;;;5260445;28;20623;-71
2022/04/28 07:24:14;;;;;;;16.08;8.30;;;;;;;;;;5260136;28;20045;-72
2022/04/28 07:26:45;;;;;;;18.40;8.30;;;;;;;;;;5260314;28;20290;-73
2022/04/28 07:29:17;;;;;;;14.73;7.50;;;;;;;;;;5260882;28;20037;-73
2022/04/28 07:31:48;;;;;;;19.05;7.60;;;;;;;;;;5259500;28;20283;-71
2022/04/28 07:34:19;;;;;;;14.07;6.70;;;;;;;;;;5260583;28;20366;-69
2022/04/28 07:36:50;;;;;;;18.85;7.95;;;;;;;;;;5260137;28;20349;-69
2022/04/28 07:39:21;;;;;;;12.48;6.65;;;;;;;;;;5259259;28;20626;-70
2022/04/28 07:41:52;;;;;;;14.73;6.38;;;;;;;;;;5260650;28;20607;-69
2022/04/28 07:44:23;;;;;;;17.02;7.40;;;;;;;;;;5262239;28;20048;-68
2022/04/28 07:46:56;;;;;;;15.52;6.70;;;;;;;;;;5266737;28;20274;-68
2022/04/28 07:49:27;;;;;;;15.40;5.95;;;;;;;;;;5266980;28;20013;-69
2022/04/28 07:51:58;;;;;;;17.65;6.32;;;;;;;;;;5266685;28;20025;-69
2022/04/28 07:54:30;;;;;;;18.08;6.28;;;;;;;;;;5267028;28;20041;-69
2022/04/28 07:57:01;;;;;;;14.95;6.63;;;;;;;;;;5267318;28;20106;-69
2022/04/28 07:59:32;;;;;;;17.83;5.65;;;;;;;;;;5266018;28;20298;-69
2022/04/28 08:02:03;;;;;;;13.25;7.03;;;;;;;;;;5267196;28;20021;-69
2022/04/28 08:04:34;;;;;;;14.48;6.53;;;;;;;;;;5266641;28;20017;-68
2022/04/28 08:07:06;;;;;;;13.43;6.07;;;;;;;;;;5266531;28;20021;-69
2022/04/28 08:09:37;;;;;;;20.33;6.95;;;;;;;;;;5266802;28;20731;-69
2022/04/28 08:12:09;;;;;;;17.05;6.80;;;;;;;;;;5266273;28;20111;-69
2022/04/28 08:14:40;;;;;;;16.35;6.75;;;;;;;;;;5285746;28;20564;-69
2022/04/28 08:17:11;;;;;;;15.70;6.10;;;;;;;;;;5287823;28;20105;-72
2022/04/28 08:19:43;;;;;;;16.58;6.13;;;;;;;;;;5286344;28;20036;-72
2022/04/28 08:22:14;;;;;;;15.73;6.13;;;;;;;;;;5287357;28;20745;-71
2022/04/28 08:24:45;;;;;;;13.98;5.70;;;;;;;;;;5287133;28;20375;-71
2022/04/28 08:27:16;;;;;;;16.13;6.25;;;;;;;;;;5286639;28;20036;-71
2022/04/28 08:29:47;;;;;;;10.97;4.73;;;;;;;;;;5287080;28;20099;-71
2022/04/28 08:32:19;;;;;;;17.08;5.80;;;;;;;;;;5287324;28;20622;-72
2022/04/28 08:34:50;;;;;;;12.57;5.00;;;;;;;;;;5286390;28;20261;-72
2022/04/28 08:37:21;;;;;;;13.80;5.18;;;;;;;;;;5286954;28;20040;-72
2022/04/28 08:39:52;;;;;;;12.27;5.20;;;;;;;;;;5287788;28;20447;-72
2022/04/28 08:42:25;;;;;;;14.65;4.63;;;;;;;;;;5286537;28;20066;-72
2022/04/28 08:44:58;;;;;;;11.73;4.75;;;;;;;;;;5287868;28;20020;-71
2022/04/28 08:47:30;;;;;;;16.45;5.00;;;;;;;;;;5287094;28;20074;-71
2022/04/28 08:50:02;;;;;;;10.60;5.70;;;;;;;;;;5287400;28;20367;-71
2022/04/28 08:52:35;;;;;;;10.75;4.53;;;;;;;;;;5287125;28;20024;-71
2022/04/28 08:55:07;;;;;;;13.38;5.63;;;;;;;;;;5286822;28;20546;-71
2022/04/28 08:57:38;;;;;;;14.13;5.32;;;;;;;;;;5283662;28;20043;-72
2022/04/28 09:00:10;;;;;;;10.73;5.10;;;;;;;;;;5284240;28;20012;-72
2022/04/28 09:02:41;;;;;;;15.82;6.75;;;;;;;;;;5283105;28;20467;-72
2022/04/28 09:05:17;;;;;;;13.07;6.30;;;;;;;;;;5284597;28;20026;-72
2022/04/28 09:07:48;;;;;;;16.88;6.70;;;;;;;;;;5283854;28;20308;-72
2022/04/28 09:10:26;;;;;;;15.00;6.97;;;;;;;;;;5283165;28;20020;-72
2022/04/28 09:14:09;;;;;;;12.25;6.68;;;;;;;;;;5284090;28;20134;-69
2022/04/28 09:15:54;;;;;;;16.08;6.10;;;;;;;;;;5283523;28;20052;-69
2022/04/28 09:18:25;;;;;;;18.73;7.07;;;;;;;;;;5283236;28;20059;-72
2022/04/28 09:20:56;;;;;;;10.65;5.93;;;;;;;;;;5284015;28;20074;-71
2022/04/28 09:23:27;;;;;;;11.40;5.50;;;;;;;;;;5282387;28;20025;-72
2022/04/28 09:25:59;;;;;;;12.05;5.85;;;;;;;;;;5283866;28;20416;-72
2022/04/28 09:28:30;;;;;;;13.70;5.65;;;;;;;;;;5283443;28;20419;-74
2022/04/28 09:31:01;;;;;;;15.45;5.57;;;;;;;;;;5283125;28;20017;-72
2022/04/28 09:33:32;;;;;;;14.32;5.43;;;;;;;;;;5283282;28;20270;-72
2022/04/28 09:36:04;;;;;;;13.07;5.43;;;;;;;;;;5283512;28;20111;-73
2022/04/28 09:38:35;;;;;;;10.40;5.05;;;;;;;;;;5282337;28;20017;-72
2022/04/28 09:44:00;;;;;;;10.50;5.05;;;;;;;;;;5284056;28;20036;-72
2022/04/28 09:46:31;;;;;;;14.80;5.10;;;;;;;;;;5281977;28;20095;-69
2022/04/28 09:49:02;;;;;;;12.57;5.00;;;;;;;;;;5283374;28;20052;-72
2022/04/28 09:51:35;;;;;;;11.23;5.05;;;;;;;;;;5282142;28;20581;-71
2022/04/28 09:54:10;;;;;;;11.73;5.05;;;;;;;;;;5283428;28;20121;-71
2022/04/28 09:56:43;;;;;;;7.50;4.43;;;;;;;;;;5282584;28;20047;-72
2022/04/28 09:59:14;;;;;;;14.50;4.85;;;;;;;;;;5282267;28;20036;-72
2022/04/28 10:01:45;;;;;;;12.75;4.28;;;;;;;;;;5282560;28;20381;-71
2022/04/28 10:04:16;;;;;;;10.20;4.13;;;;;;;;;;5283261;28;20040;-72
2022/04/28 10:06:48;;;;;;;13.37;4.20;;;;;;;;;;5281400;28;20277;-71
2022/04/28 10:09:20;;;;;;;7.13;3.60;;;;;;;;;;5282505;28;20012;-72
2022/04/28 10:11:52;;;;;;;8.45;4.43;;;;;;;;;;5282918;28;20379;-72
2022/04/28 10:14:23;;;;;;;7.97;3.90;;;;;;;;;;5281840;28;20059;-72
2022/04/28 10:16:57;;;;;;;16.02;5.18;;;;;;;;;;5282499;28;20052;-70
2022/04/28 10:19:31;;;;;;;9.77;4.50;;;;;;;;;;5281517;28;20013;-71
2022/04/28 10:22:03;;;;;;;12.68;4.82;;;;;;;;;;5283081;28;20052;-70
2022/04/28 10:33:15;;;;;;;10.93;5.18;;;;;;;;;;5282854;28;20036;-69
2022/04/28 10:35:49;;;;;;;10.73;6.47;;;;;;;;;;5281346;28;20483;-69
2022/04/28 10:38:20;;;;;;;9.65;4.53;;;;;;;;;;5281127;28;20445;-70
2022/04/28 10:40:56;;;;;;;13.73;6.17;;;;;;;;;;5281511;28;20021;-69
2022/04/28 10:43:27;;;;;;;14.30;5.53;;;;;;;;;;5281612;28;20271;-69
2022/04/28 10:46:24;;;;;;;13.77;6.18;;;;;;;;;;5281988;28;20585;-69
2022/04/28 10:48:59;;;;;;;14.95;5.53;;;;;;;;;;5281245;28;20095;-70
2022/04/28 10:51:31;;;;;;;12.05;5.40;;;;;;;;;;5281489;28;20472;-70
2022/04/28 10:54:06;;;;;;;12.32;6.03;;;;;;;;;;5282336;28;20012;-68
2022/04/28 10:56:40;;;;;;;13.60;5.90;;;;;;;;;;5280714;28;20086;-70
2022/04/28 10:59:34;;;;;;;11.30;5.80;;;;;;;;;;5282103;28;20491;-70
2022/04/28 11:02:13;;;;;;;10.65;5.60;;;;;;;;;;5281396;28;20028;-70
2022/04/28 11:04:48;;;;;;;11.55;6.15;;;;;;;;;;5281561;28;20137;-70
2022/04/28 11:07:21;;;;;;;10.13;5.32;;;;;;;;;;5281922;28;20483;-70
2022/04/28 11:10:02;;;;;;;10.60;6.50;;;;;;;;;;5281298;28;20017;-69
2022/04/28 11:12:38;;;;;;;8.32;5.15;;;;;;;;;;5281751;28;20016;-70
2022/04/28 11:15:14;;;;;;;12.85;6.43;;;;;;;;;;5282053;28;20395;-70
2022/04/28 11:17:45;;;;;;;13.13;6.10;;;;;;;;;;5280610;28;20028;-70
2022/04/28 11:20:19;;;;;;;12.88;5.60;;;;;;;;;;5281033;28;20022;-70
2022/04/28 11:22:51;;;;;;;17.58;6.10;;;;;;;;;;5281011;28;20230;-70
2022/04/28 11:25:23;;;;;;;10.07;6.40;;;;;;;;;;5281315;28;20026;-70
2022/04/28 11:27:55;;;;;;;15.77;6.50;;;;;;;;;;5282014;28;20099;-70
2022/04/28 11:30:26;;;;;;;12.60;6.30;;;;;;;;;;5280343;28;20374;-70
2022/04/28 11:32:59;;;;;;;12.65;5.82;;;;;;;;;;5281849;28;20013;-70
2022/04/28 11:35:31;;;;;;;12.63;6.68;;;;;;;;;;5281164;28;20130;-70
2022/04/28 11:38:03;;;;;;;12.07;6.38;;;;;;;;;;5280840;28;20024;-70
2022/04/28 11:40:35;;;;;;;16.45;7.07;;;;;;;;;;5280878;28;20070;-70
2022/04/28 11:43:06;;;;;;;9.48;7.00;;;;;;;;;;5281445;28;20134;-69
2022/04/28 11:45:37;;;;;;;11.10;6.10;;;;;;;;;;5280004;28;20029;-70
2022/04/28 11:48:09;;;;;;;18.75;6.70;;;;;;;;;;5281313;28;20025;-69
2022/04/28 11:50:40;;;;;;;11.77;7.13;;;;;;;;;;5279986;28;20738;-70
2022/04/28 11:53:12;;;;;;;14.55;7.45;;;;;;;;;;5281316;28;20013;-70
2022/04/28 11:55:43;;;;;;;12.57;6.82;;;;;;;;;;5280644;28;20082;-69
2022/04/28 11:58:16;;;;;;;13.27;7.00;;;;;;;;;;5279850;28;20047;-71
2022/04/28 12:00:47;;;;;;;11.23;7.25;;;;;;;;;;5281021;28;20044;-72
2022/04/28 12:03:22;;;;;;;12.00;6.35;;;;;;;;;;5281403;28;20059;-71
2022/04/28 12:05:54;;;;;;;12.98;6.82;;;;;;;;;;5280328;28;20020;-70
2022/04/28 12:08:25;;;;;;;14.63;7.28;;;;;;;;;;5280788;28;20097;-71
2022/04/28 12:19:27;;;;;;;14.52;6.32;;;;;;;;;;5279934;28;20024;-70
2022/04/28 12:22:05;;;;;;;12.93;6.28;;;;;;;;;;5281322;28;20024;-69
2022/04/28 12:24:41;;;;;;;13.98;6.65;;;;;;;;;;5280300;28;20023;-69
2022/04/28 12:27:12;;;;;;;11.80;6.70;;;;;;;;;;5280304;28;20085;-71
2022/04/28 12:29:52;;;;;;;9.38;5.72;;;;;;;;;;5280351;28;20293;-70
2022/04/28 12:32:23;;;;;;;9.82;6.13;;;;;;;;;;5283876;28;20028;-71
2022/04/28 12:35:03;;;;;;;13.93;7.40;;;;;;;;;;5283764;28;20089;-70
2022/04/28 12:37:38;;;;;;;12.55;6.25;;;;;;;;;;5284263;28;20421;-71
2022/04/28 12:40:16;;;;;;;10.77;6.22;;;;;;;;;;5283937;28;20328;-70
2022/04/28 12:42:48;;;;;;;12.30;6.00;;;;;;;;;;5284225;28;20387;-71
2022/04/28 12:45:40;;;;;;;9.30;6.03;;;;;;;;;;5284196;28;20259;-70
2022/04/28 12:48:24;;;;;;;15.38;7.38;;;;;;;;;;5284039;28;20016;-71
2022/04/28 12:51:14;;;;;;;12.27;6.28;;;;;;;;;;5284577;28;20016;-71
2022/04/28 12:53:49;;;;;;;13.65;6.38;;;;;;;;;;5283765;28;20024;-71
2022/04/28 12:56:31;;;;;;;15.02;6.20;;;;;;;;;;5283108;28;20043;-71
2022/04/28 12:59:06;;;;;;;10.73;6.82;;;;;;;;;;5284376;28;20500;-70
2022/04/28 13:01:37;;;;;;;13.65;5.45;;;;;;;;;;5282800;28;20012;-70
2022/04/28 13:04:09;;;;;;;10.13;5.40;;;;;;;;;;5284209;28;20026;-69
2022/04/28 13:06:45;;;;;;;15.20;6.65;;;;;;;;;;5283518;28;20467;-70
2022/04/28 13:09:17;;;;;;;11.95;6.07;;;;;;;;;;5283460;28;20030;-70
2022/04/28 13:11:49;;;;;;;14.40;6.57;;;;;;;;;;5283775;28;20367;-69
2022/04/28 13:14:20;;;;;;;13.63;6.13;;;;;;;;;;5283215;28;20017;-69
2022/04/28 13:16:52;;;;;;;10.32;5.60;;;;;;;;;;5281959;28;20090;-69
2022/04/28 13:19:23;;;;;;;14.82;5.53;;;;;;;;;;5283281;28;20027;-69
2022/04/28 13:21:54;;;;;;;10.40;4.97;;;;;;;;;;5284075;28;20039;-69
2022/04/28 13:24:25;;;;;;;13.27;5.03;;;;;;;;;;5282703;28;20017;-69
2022/04/28 13:26:58;;;;;;;10.63;5.93;;;;;;;;;;5283960;28;20016;-69
2022/04/28 13:29:30;;;;;;;13.68;4.95;;;;;;;;;;5282335;28;20255;-69
2022/04/28 13:32:01;;;;;;;13.83;6.10;;;;;;;;;;5283129;28;20023;-69
2022/04/28 13:34:33;;;;;;;10.32;3.97;;;;;;;;;;5282520;28;20321;-69
2022/04/28 13:37:05;;;;;;;11.32;5.15;;;;;;;;;;5282476;28;20393;-68
2022/04/28 13:39:37;;;;;;;10.15;5.00;;;;;;;;;;5283009;28;20067;-69
2022/04/28 13:42:08;;;;;;;12.38;5.03;;;;;;;;;;5282649;28;20044;-69
2022/04/28 13:44:40;;;;;;;12.15;4.72;;;;;;;;;;5281987;28;20036;-69
2022/04/28 13:47:11;;;;;;;12.55;5.28;;;;;;;;;;5283498;28;20025;-69
2022/04/28 13:49:42;;;;;;;12.98;5.05;;;;;;;;;;5282760;28;20008;-69
2022/04/28 13:52:13;;;;;;;18.67;5.85;;;;;;;;;;5282404;28;20263;-68
2022/04/28 13:54:44;;;;;;;9.03;4.90;;;;;;;;;;5282855;28;20255;-69
2022/04/28 13:57:17;;;;;;;8.60;4.53;;;;;;;;;;5282262;28;20295;-70
2022/04/28 13:59:48;;;;;;;8.25;4.93;;;;;;;;;;5282965;28;20266;-70
2022/04/28 14:02:19;;;;;;;9.90;4.63;;;;;;;;;;5282892;28;20024;-69
2022/04/28 14:04:51;;;;;;;8.93;4.22;;;;;;;;;;5281814;28;20783;-69
2022/04/28 14:07:22;;;;;;;9.88;3.90;;;;;;;;;;5282613;28;20024;-69
2022/04/28 14:09:53;;;;;;;9.77;3.53;;;;;;;;;;5283025;28;20024;-69
2022/04/28 14:12:25;;;;;;;10.52;4.28;;;;;;;;;;5281573;28;20017;-70
2022/04/28 14:14:56;;;;;;;11.85;4.63;;;;;;;;;;5282729;28;20045;-69
2022/04/28 14:17:28;;;;;;;10.73;4.80;;;;;;;;;;5282134;28;20181;-69
2022/04/28 14:20:02;;;;;;;12.38;4.05;;;;;;;;;;5282068;28;20020;-69
2022/04/28 14:22:33;;;;;;;10.88;5.00;;;;;;;;;;5282007;28;20041;-70
2022/04/28 14:25:04;;;;;;;8.93;5.20;;;;;;;;;;5282617;28;20031;-69
2022/04/28 14:27:35;;;;;;;11.27;4.03;;;;;;;;;;5281423;28;20051;-69
2022/04/28 14:30:07;;;;;;;11.80;4.65;;;;;;;;;;5282661;28;20009;-69
2022/04/28 14:32:38;;;;;;;13.07;4.90;;;;;;;;;;5281030;28;20030;-70
2022/04/28 14:35:10;;;;;;;10.85;4.80;;;;;;;;;;5282429;28;20036;-69
2022/04/28 14:37:42;;;;;;;10.85;4.88;;;;;;;;;;5281424;28;20039;-69
2022/04/28 14:40:13;;;;;;;8.88;4.80;;;;;;;;;;5263714;28;20464;-69
2022/04/28 14:42:44;;;;;;;10.73;4.07;;;;;;;;;;5281821;28;20100;-69
2022/04/28 14:45:17;;;;;;;12.10;4.97;;;;;;;;;;5282414;28;20098;-69
2022/04/28 14:47:48;;;;;;;8.15;4.53;;;;;;;;;;5281008;28;20040;-67
2022/04/28 14:53:09;;;;;;;14.02;4.57;;;;;;;;;;5282247;28;20107;-68
2022/04/28 14:55:40;;;;;;;14.23;5.90;;;;;;;;;;5280274;28;20523;-68
2022/04/28 14:58:11;;;;;;;15.80;5.37;;;;;;;;;;5281876;28;20035;-69
2022/04/28 15:00:43;;;;;;;11.23;5.20;;;;;;;;;;5280748;28;20671;-69
2022/04/28 15:03:15;;;;;;;13.85;5.78;;;;;;;;;;5281949;28;20275;-68
2022/04/28 15:05:46;;;;;;;11.02;5.60;;;;;;;;;;5281471;28;20013;-68
2022/04/28 15:08:18;;;;;;;14.10;5.80;;;;;;;;;;5281180;28;20021;-69
2022/04/28 15:10:49;;;;;;;11.00;5.00;;;;;;;;;;5281613;28;20270;-69
2022/04/28 15:13:20;;;;;;;14.07;5.53;;;;;;;;;;5281741;28;20016;-70
2022/04/28 15:15:51;;;;;;;13.75;5.78;;;;;;;;;;5280566;28;20040;-69
2022/04/28 15:18:22;;;;;;;13.57;4.55;;;;;;;;;;5281508;28;20012;-69
2022/04/28 15:20:53;;;;;;;11.80;5.10;;;;;;;;;;5282011;28;20012;-69
2022/04/28 15:23:25;;;;;;;13.52;4.75;;;;;;;;;;5280431;28;20024;-69
2022/04/28 15:25:56;;;;;;;7.82;3.88;;;;;;;;;;5281800;28;20070;-69
2022/04/28 15:28:27;;;;;;;8.15;3.20;;;;;;;;;;5281452;28;20024;-70
2022/04/28 15:30:59;;;;;;;10.30;3.78;;;;;;;;;;5281201;28;20255;-69
2022/04/28 15:33:30;;;;;;;11.55;4.70;;;;;;;;;;5281245;28;20078;-70
2022/04/28 15:36:01;;;;;;;15.77;5.25;;;;;;;;;;5280979;28;20074;-69